Time;durP1;ratioP1;P1;durP2;ratioP2;P2;SDS_P1;SDS_P2;PMS_P1;PMS_P2;Temp;Humidity;BMP_temperature;BMP_pressure;BME280_temperature;BME280_humidity;BME280_pressure;Samples;Min_cycle;Max_cycle;Signal;HPM_P1;HPM_P2
2023/11/24 00:00:29;;;;;;;18.60;2.05;;;;;;;17.22;54.04;101187.13;5075262;28;20063;-57
2023/11/24 00:02:54;;;;;;;6.25;2.33;;;;;;;17.23;53.79;101191.53;5075246;28;20054;-58
2023/11/24 00:05:21;;;;;;;10.75;1.75;;;;;;;17.20;54.09;101205.38;5065335;28;20123;-57
2023/11/24 00:07:47;;;;;;;18.60;2.03;;;;;;;17.25;54.62;101205.75;5093953;28;20032;-58
2023/11/24 00:10:13;;;;;;;12.45;2.33;;;;;;;17.26;53.65;101202.03;5065778;28;20119;-57
2023/11/24 00:12:38;;;;;;;7.93;1.42;;;;;;;17.30;53.83;101222.38;5093741;28;20118;-57
2023/11/24 00:15:04;;;;;;;7.75;2.72;;;;;;;17.32;54.06;101223.91;5092877;28;20032;-61
2023/11/24 00:17:33;;;;;;;12.05;2.05;;;;;;;17.34;54.16;101231.84;5093281;28;20039;-61
2023/11/24 00:19:58;;;;;;;15.82;2.08;;;;;;;17.36;54.12;101219.00;5074864;28;20419;-61
2023/11/24 00:22:24;;;;;;;7.82;1.83;;;;;;;17.37;53.53;101231.53;5093169;28;20053;-61
2023/11/24 00:24:51;;;;;;;11.30;1.75;;;;;;;17.39;53.97;101232.22;5093051;28;20560;-61
2023/11/24 00:27:18;;;;;;;10.98;1.85;;;;;;;17.44;53.35;101221.75;5092332;28;20113;-61
2023/11/24 00:29:44;;;;;;;10.32;2.20;;;;;;;17.45;53.07;101226.97;5092402;28;20568;-61
2023/11/24 00:32:09;;;;;;;9.30;2.00;;;;;;;17.48;53.09;101229.38;5050509;28;20055;-62
2023/11/24 00:34:38;;;;;;;14.02;1.67;;;;;;;17.53;53.72;101236.16;5074837;28;20055;-61
2023/11/24 00:37:06;;;;;;;8.82;1.70;;;;;;;17.54;53.19;101233.31;5074726;28;20485;-61
2023/11/24 00:39:32;;;;;;;9.82;2.22;;;;;;;17.57;53.01;101222.16;5073150;28;20054;-61
2023/11/24 00:42:00;;;;;;;9.43;2.25;;;;;;;17.61;52.90;101228.09;5065298;28;20032;-61
2023/11/24 00:44:25;;;;;;;12.55;2.70;;;;;;;17.64;52.80;101234.03;5072362;28;20054;-61
2023/11/24 00:46:51;;;;;;;5.22;2.13;;;;;;;17.66;53.13;101231.16;5075078;28;20028;-61
2023/11/24 00:49:17;;;;;;;21.70;2.90;;;;;;;17.66;52.79;101236.56;5075028;28;20500;-61
2023/11/24 00:51:43;;;;;;;10.23;3.10;;;;;;;17.68;52.43;101238.09;5093120;28;20113;-61
2023/11/24 00:54:09;;;;;;;7.85;1.83;;;;;;;17.69;52.31;101237.09;5093092;28;20102;-61
2023/11/24 00:56:35;;;;;;;9.43;2.38;;;;;;;17.67;52.92;101249.13;5074990;28;20082;-61
2023/11/24 00:59:00;;;;;;;10.75;2.42;;;;;;;17.67;52.70;101238.28;5075210;28;20477;-61
2023/11/24 01:01:26;;;;;;;12.10;1.98;;;;;;;17.64;52.87;101238.59;5058143;28;20119;-61
2023/11/24 01:03:54;;;;;;;11.50;3.08;;;;;;;17.65;52.21;101234.88;5093155;28;20028;-62
2023/11/24 01:06:19;;;;;;;14.43;2.15;;;;;;;17.63;52.89;101224.22;5093282;28;20066;-61
2023/11/24 01:08:45;;;;;;;13.52;2.03;;;;;;;17.60;52.58;101235.38;5092933;28;20035;-61
2023/11/24 01:11:10;;;;;;;8.77;1.80;;;;;;;17.55;52.00;101240.44;5092877;28;20039;-61
2023/11/24 01:13:37;;;;;;;16.38;3.03;;;;;;;17.56;52.24;101250.25;5075015;28;20115;-61
2023/11/24 01:16:04;;;;;;;8.50;2.00;;;;;;;17.56;51.91;101247.53;5075187;28;20032;-61
2023/11/24 01:18:29;;;;;;;13.27;2.45;;;;;;;17.55;52.01;101240.44;5094308;28;20028;-63
2023/11/24 01:20:55;;;;;;;15.50;2.63;;;;;;;17.53;51.53;101239.72;5097047;28;20036;-61
2023/11/24 01:23:20;;;;;;;22.23;2.42;;;;;;;17.51;51.89;101249.84;5077125;28;20089;-61
2023/11/24 01:25:46;;;;;;;19.05;2.28;;;;;;;17.50;51.50;101237.34;5077489;28;20060;-57
2023/11/24 01:28:13;;;;;;;10.88;1.83;;;;;;;17.46;51.63;101230.53;5094117;28;20376;-57
2023/11/24 01:30:39;;;;;;;18.08;3.10;;;;;;;17.47;50.99;101237.66;5076093;28;20039;-57
2023/11/24 01:33:04;;;;;;;16.23;2.53;;;;;;;17.47;51.97;101222.25;5093934;28;20034;-57
2023/11/24 01:35:30;;;;;;;18.45;2.78;;;;;;;17.42;51.42;101229.16;5093364;28;20118;-57
2023/11/24 01:37:56;;;;;;;19.77;2.63;;;;;;;17.39;51.59;101226.81;5074805;28;20036;-58
2023/11/24 01:40:22;;;;;;;11.80;2.63;;;;;;;17.37;51.55;101209.84;5096635;28;20495;-57
2023/11/24 01:42:48;;;;;;;16.58;2.40;;;;;;;17.38;51.34;101214.28;5097197;28;20063;-57
2023/11/24 01:45:14;;;;;;;10.05;1.70;;;;;;;17.32;51.09;101195.97;5079263;28;20059;-57
2023/11/24 01:47:40;;;;;;;8.50;1.75;;;;;;;17.30;51.18;101189.88;5096974;28;20059;-57
2023/11/24 01:50:07;;;;;;;8.38;2.10;;;;;;;17.24;51.42;101199.50;5097255;28;20479;-57
2023/11/24 01:52:34;;;;;;;13.02;3.60;;;;;;;17.23;51.13;101203.19;5097115;28;20398;-58
2023/11/24 01:55:03;;;;;;;17.35;4.65;;;;;;;17.18;50.86;101199.28;5097388;28;20052;-57
2023/11/24 01:57:28;;;;;;;20.15;2.35;;;;;;;17.17;50.65;101197.63;5096315;28;20036;-57
2023/11/24 01:59:54;;;;;;;13.25;2.17;;;;;;;17.13;51.17;101204.34;5096618;28;20028;-58
2023/11/24 02:02:20;;;;;;;16.38;2.90;;;;;;;17.11;50.74;101219.91;5078256;28;20020;-57
2023/11/24 02:04:49;;;;;;;16.00;2.03;;;;;;;17.10;50.57;101218.19;5061595;28;20135;-57
2023/11/24 02:07:14;;;;;;;13.95;2.28;;;;;;;17.12;50.78;101237.84;5078130;28;20030;-57
2023/11/24 02:09:41;;;;;;;8.07;3.15;;;;;;;17.06;50.38;101228.50;5061462;28;20032;-57
2023/11/24 02:12:07;;;;;;;13.45;1.92;;;;;;;17.04;51.04;101240.50;5099484;28;20024;-57
2023/11/24 02:14:32;;;;;;;13.30;2.20;;;;;;;17.00;50.65;101239.16;5081149;28;20394;-58
2023/11/24 02:16:59;;;;;;;11.77;2.75;;;;;;;16.94;51.12;101231.66;5078323;28;20043;-57
2023/11/24 02:19:25;;;;;;;12.27;2.85;;;;;;;16.92;50.45;101228.28;5078193;28;20012;-57
2023/11/24 02:21:50;;;;;;;9.90;2.67;;;;;;;16.89;49.93;101222.16;5095781;28;20031;-57
2023/11/24 02:24:16;;;;;;;17.10;3.15;;;;;;;16.94;49.66;101215.41;5061170;28;20028;-57
2023/11/24 02:26:41;;;;;;;14.15;3.15;;;;;;;16.94;50.28;101224.41;5095815;28;20024;-57
2023/11/24 02:29:08;;;;;;;10.77;1.75;;;;;;;16.94;50.57;101218.97;5095867;28;20477;-57
2023/11/24 02:31:34;;;;;;;12.32;2.53;;;;;;;16.92;49.99;101207.44;5077830;28;20016;-57
2023/11/24 02:33:59;;;;;;;12.30;1.70;;;;;;;16.96;50.05;101210.69;5096068;28;20076;-57
2023/11/24 02:36:27;;;;;;;9.20;1.80;;;;;;;16.96;49.24;101203.41;5095791;28;20467;-57
2023/11/24 02:38:54;;;;;;;11.15;1.92;;;;;;;16.95;50.29;101200.84;5078114;28;20029;-58
2023/11/24 02:41:22;;;;;;;11.85;1.60;;;;;;;16.89;50.15;101199.66;5095445;28;20039;-57
2023/11/24 02:43:47;;;;;;;18.95;3.40;;;;;;;16.87;49.54;101201.66;5061168;28;20051;-57
2023/11/24 02:46:13;;;;;;;13.82;1.90;;;;;;;16.86;49.49;101190.00;5095756;28;20468;-57
2023/11/24 02:48:39;;;;;;;10.88;1.95;;;;;;;16.85;50.06;101188.31;5077776;28;20514;-57
2023/11/24 02:51:05;;;;;;;13.48;2.33;;;;;;;16.86;50.14;101189.16;5076942;28;20029;-58
2023/11/24 02:53:31;;;;;;;15.70;2.97;;;;;;;16.85;50.11;101188.31;5060305;28;20062;-57
2023/11/24 02:55:56;;;;;;;15.10;1.92;;;;;;;16.86;49.17;101195.41;5077334;28;20380;-58
2023/11/24 02:58:23;;;;;;;12.60;1.58;;;;;;;16.84;49.75;101194.72;5095428;28;20043;-57
2023/11/24 03:00:49;;;;;;;11.98;1.65;;;;;;;16.86;49.90;101190.00;5095102;28;20392;-58
2023/11/24 03:03:16;;;;;;;14.45;1.88;;;;;;;16.87;49.06;101191.69;5095467;28;20468;-57
2023/11/24 03:05:41;;;;;;;13.55;2.15;;;;;;;16.87;49.59;101182.72;5077300;28;20044;-58
2023/11/24 03:08:08;;;;;;;14.88;2.38;;;;;;;16.88;49.66;101193.41;5095409;28;20024;-57
2023/11/24 03:10:33;;;;;;;6.68;1.65;;;;;;;16.88;49.26;101188.00;5094755;28;20024;-57
2023/11/24 03:12:59;;;;;;;19.02;2.13;;;;;;;16.88;49.52;101188.00;5096531;28;20102;-58
2023/11/24 03:15:25;;;;;;;11.52;1.75;;;;;;;16.87;49.64;101175.47;5077740;28;20375;-57
2023/11/24 03:17:50;;;;;;;11.93;2.17;;;;;;;16.85;48.66;101172.09;5077172;28;20032;-57
2023/11/24 03:20:15;;;;;;;8.57;1.25;;;;;;;16.85;49.26;101176.63;5076780;28;20024;-58
2023/11/24 03:22:41;;;;;;;15.88;2.83;;;;;;;16.81;48.69;101165.28;5076618;28;20035;-57
2023/11/24 03:25:08;;;;;;;8.20;1.42;;;;;;;16.77;48.28;101166.63;5094683;28;20395;-57
2023/11/24 03:27:34;;;;;;;11.77;1.75;;;;;;;16.68;49.97;101164.88;5094762;28;20117;-57
2023/11/24 03:29:59;;;;;;;13.88;3.22;;;;;;;16.60;49.35;101156.72;5076650;28;20432;-59
2023/11/24 03:32:27;;;;;;;6.70;1.77;;;;;;;16.53;48.99;101152.06;5094468;28;20557;-57
2023/11/24 03:34:53;;;;;;;6.03;1.30;;;;;;;16.49;49.46;101159.66;5076897;28;20138;-57
2023/11/24 03:37:18;;;;;;;12.52;1.98;;;;;;;16.44;48.84;101145.78;5094791;28;20496;-57
2023/11/24 03:39:43;;;;;;;6.22;1.25;;;;;;;16.41;49.37;101146.09;5076277;28;20492;-57
2023/11/24 03:42:09;;;;;;;8.18;1.27;;;;;;;16.41;48.96;101158.75;5076337;28;20024;-57
2023/11/24 03:44:34;;;;;;;4.70;1.55;;;;;;;16.38;49.12;101159.94;5076354;28;20028;-57
2023/11/24 03:47:00;;;;;;;5.60;1.48;;;;;;;16.41;48.97;101151.50;5076026;28;20032;-58
2023/11/24 03:49:25;;;;;;;11.73;2.97;;;;;;;16.40;48.61;101152.50;5094307;28;20024;-57
2023/11/24 03:51:50;;;;;;;6.35;1.75;;;;;;;16.36;48.99;101152.97;5052561;28;20090;-57
2023/11/24 03:54:16;;;;;;;6.78;1.92;;;;;;;16.38;48.91;101156.38;5056222;28;20577;-57
2023/11/24 03:56:41;;;;;;;10.48;1.35;;;;;;;16.41;47.83;101148.78;5081193;28;20411;-57
2023/11/24 03:59:06;;;;;;;12.60;1.48;;;;;;;16.36;48.66;101140.28;5093882;28;20031;-58
2023/11/24 04:01:33;;;;;;;12.75;1.50;;;;;;;16.33;48.57;101137.94;5075471;28;20063;-57
2023/11/24 04:03:59;;;;;;;9.63;1.30;;;;;;;16.35;48.54;101130.50;5058239;28;20111;-57
2023/11/24 04:06:24;;;;;;;8.55;1.42;;;;;;;16.35;48.42;101132.34;5075993;28;20534;-57
2023/11/24 04:08:51;;;;;;;4.40;1.13;;;;;;;16.33;48.32;101129.81;5075805;28;20116;-57
2023/11/24 04:11:17;;;;;;;6.88;0.88;;;;;;;16.33;48.18;101127.13;5076220;28;20032;-57
2023/11/24 04:13:42;;;;;;;6.97;1.27;;;;;;;16.31;48.38;101129.09;5094100;28;20028;-56
2023/11/24 04:16:07;;;;;;;14.70;1.55;;;;;;;16.31;47.84;101127.25;5095844;28;20055;-56
2023/11/24 04:18:33;;;;;;;8.75;1.67;;;;;;;16.32;48.04;101125.41;5097051;28;20020;-57
2023/11/24 04:20:58;;;;;;;11.30;1.50;;;;;;;16.29;48.30;101117.63;5075655;28;20036;-57
2023/11/24 04:23:25;;;;;;;6.55;1.60;;;;;;;16.24;48.25;101122.66;5094020;28;20103;-57
2023/11/24 04:25:50;;;;;;;9.10;1.20;;;;;;;16.26;47.30;101117.94;5075505;28;20514;-57
2023/11/24 04:28:15;;;;;;;4.53;1.05;;;;;;;16.19;48.15;101112.28;5093733;28;20036;-57
2023/11/24 04:30:41;;;;;;;15.55;1.40;;;;;;;16.17;48.24;101114.31;5093487;28;20032;-57
2023/11/24 04:33:06;;;;;;;8.55;0.98;;;;;;;16.15;48.28;101112.78;5075588;28;20058;-57
2023/11/24 04:35:32;;;;;;;2.25;0.88;;;;;;;16.12;48.81;101113.09;5075695;28;20107;-57
2023/11/24 04:37:58;;;;;;;4.95;1.02;;;;;;;16.11;47.73;101114.09;5093351;28;20029;-57
2023/11/24 04:40:23;;;;;;;3.20;1.02;;;;;;;16.06;48.37;101105.63;5075282;28;20025;-56
2023/11/24 04:42:49;;;;;;;4.97;1.33;;;;;;;16.08;48.41;101111.72;5075425;28;20028;-57
2023/11/24 04:45:14;;;;;;;4.57;1.45;;;;;;;16.04;48.35;101107.63;5093386;28;20036;-58
2023/11/24 04:47:39;;;;;;;13.20;1.52;;;;;;;16.03;48.49;101105.94;5075295;28;20086;-57
2023/11/24 04:50:06;;;;;;;10.65;1.60;;;;;;;16.00;47.79;101108.94;5075075;28;20098;-57
2023/11/24 04:52:32;;;;;;;4.72;1.30;;;;;;;15.99;48.61;101107.25;5092957;28;20028;-57
2023/11/24 04:54:57;;;;;;;3.83;0.80;;;;;;;15.97;48.32;101098.47;5075241;28;20422;-57
2023/11/24 04:57:22;;;;;;;10.52;1.10;;;;;;;15.96;47.85;101094.91;5075169;28;20052;-57
2023/11/24 04:59:48;;;;;;;6.72;1.00;;;;;;;15.96;47.66;101089.53;5075220;28;20086;-57
2023/11/24 05:02:13;;;;;;;3.72;0.80;;;;;;;15.96;48.43;101083.25;5074839;28;20082;-58
2023/11/24 05:04:39;;;;;;;4.80;1.02;;;;;;;15.98;48.19;101083.94;5093033;28;20036;-57
2023/11/24 05:07:04;;;;;;;5.00;0.90;;;;;;;15.97;48.57;101076.88;5074667;28;20028;-58
2023/11/24 05:09:29;;;;;;;11.18;1.25;;;;;;;15.98;48.32;101078.53;5074881;28;20028;-58
2023/11/24 05:11:55;;;;;;;2.60;1.33;;;;;;;15.99;48.41;101074.84;5093099;28;20036;-57
2023/11/24 05:14:20;;;;;;;4.70;1.00;;;;;;;15.97;47.80;101066.06;5092613;28;20088;-58
2023/11/24 05:16:45;;;;;;;13.38;1.30;;;;;;;15.98;47.37;101068.59;5077458;28;20024;-57
2023/11/24 05:19:11;;;;;;;8.43;1.27;;;;;;;16.01;47.64;101062.00;5093789;28;20403;-57
2023/11/24 05:21:38;;;;;;;10.52;1.15;;;;;;;16.01;47.78;101062.00;5092812;28;20505;-57
2023/11/24 05:24:03;;;;;;;8.15;1.50;;;;;;;16.05;47.44;101064.22;5075269;28;20434;-57
2023/11/24 05:26:29;;;;;;;9.02;1.75;;;;;;;16.07;47.80;101061.38;5058315;28;20028;-57
2023/11/24 05:28:54;;;;;;;13.52;1.33;;;;;;;16.04;47.69;101059.00;5092120;28;20067;-57
2023/11/24 05:31:19;;;;;;;11.48;1.60;;;;;;;16.02;48.16;101052.91;5093503;28;20024;-57
2023/11/24 05:33:45;;;;;;;5.57;1.20;;;;;;;15.99;47.55;101045.97;5075145;28;20028;-57
2023/11/24 05:36:10;;;;;;;10.60;1.90;;;;;;;15.95;47.96;101047.28;5075114;28;20086;-57
2023/11/24 05:38:39;;;;;;;7.82;1.35;;;;;;;15.93;47.79;101053.84;5093232;28;20020;-57
2023/11/24 05:41:05;;;;;;;6.22;1.92;;;;;;;15.90;48.59;101054.16;5092951;28;20039;-58
2023/11/24 05:43:30;;;;;;;7.10;1.20;;;;;;;15.84;48.78;101050.25;5074475;28;20130;-57
2023/11/24 05:45:56;;;;;;;5.97;1.40;;;;;;;15.83;48.78;101053.13;5058043;28;20545;-57
2023/11/24 05:48:21;;;;;;;3.88;1.38;;;;;;;15.76;48.54;101054.72;5075029;28;20055;-57
2023/11/24 05:50:46;;;;;;;7.65;2.58;;;;;;;15.72;48.14;101046.94;5093463;28;20434;-57
2023/11/24 05:53:12;;;;;;;13.95;1.77;;;;;;;15.70;47.69;101054.38;5093668;28;20047;-57
2023/11/24 05:55:37;;;;;;;9.48;1.10;;;;;;;15.67;48.85;101060.06;5075002;28;20036;-57
2023/11/24 05:58:05;;;;;;;9.25;1.48;;;;;;;15.63;48.75;101047.88;5076031;28;20115;-57
2023/11/24 06:00:31;;;;;;;4.82;1.20;;;;;;;15.60;48.72;101059.00;5078727;28;20050;-57
2023/11/24 06:02:57;;;;;;;5.18;1.15;;;;;;;15.57;49.10;101053.91;5079533;28;20036;-57
2023/11/24 06:05:22;;;;;;;12.25;1.58;;;;;;;15.56;49.52;101059.47;5077651;28;20078;-57
2023/11/24 06:07:48;;;;;;;6.07;0.90;;;;;;;15.54;48.46;101047.97;5096248;28;20538;-57
2023/11/24 06:10:13;;;;;;;6.57;1.20;;;;;;;15.55;49.24;101055.91;5075256;28;20051;-57
2023/11/24 06:12:39;;;;;;;8.55;1.27;;;;;;;15.53;47.88;101060.63;5059657;28;20119;-57
2023/11/24 06:15:05;;;;;;;4.13;1.02;;;;;;;15.53;48.38;101057.06;5075087;28;20035;-57
2023/11/24 06:17:30;;;;;;;5.57;1.20;;;;;;;15.52;48.60;101055.41;5093115;28;20526;-57
2023/11/24 06:19:55;;;;;;;6.25;1.55;;;;;;;15.51;49.61;101051.84;5093937;28;20036;-57
2023/11/24 06:22:21;;;;;;;9.73;1.40;;;;;;;15.55;49.32;101055.91;5093684;28;20055;-57
2023/11/24 06:24:46;;;;;;;3.85;1.88;;;;;;;15.54;48.93;101048.84;5075784;28;20032;-57
2023/11/24 06:27:11;;;;;;;5.85;0.93;;;;;;;15.54;48.34;101059.63;5061681;28;20025;-57
2023/11/24 06:29:37;;;;;;;5.70;1.30;;;;;;;15.58;47.89;101052.91;5096567;28;20496;-57
2023/11/24 06:32:02;;;;;;;5.03;1.55;;;;;;;15.61;47.67;101057.13;5077905;28;20028;-57
2023/11/24 06:34:28;;;;;;;6.20;1.20;;;;;;;15.57;49.01;101048.53;5077258;28;20028;-57
2023/11/24 06:36:53;;;;;;;3.67;1.40;;;;;;;15.56;48.73;101048.66;5090497;28;20450;-57
2023/11/24 06:39:19;;;;;;;4.72;0.93;;;;;;;15.55;48.69;101034.31;5057359;28;20028;-58
2023/11/24 06:41:46;;;;;;;5.70;1.27;;;;;;;15.54;49.28;101038.03;5063457;28;20404;-57
2023/11/24 06:44:11;;;;;;;4.93;1.40;;;;;;;15.51;47.89;101037.50;5077576;28;20111;-57
2023/11/24 06:46:37;;;;;;;2.35;0.50;;;;;;;15.50;48.13;101042.03;5095440;28;20126;-57
2023/11/24 06:49:02;;;;;;;1.73;0.63;;;;;;;15.49;48.30;101043.06;5077593;28;20024;-56
2023/11/24 06:51:28;;;;;;;3.90;0.60;;;;;;;15.51;48.81;101048.28;5077490;28;20040;-57
2023/11/24 06:53:54;;;;;;;6.28;1.08;;;;;;;15.53;48.11;101063.31;5095303;28;20048;-57
2023/11/24 06:56:19;;;;;;;9.30;1.15;;;;;;;15.51;47.86;101059.94;5077246;28;20030;-57
2023/11/24 06:58:44;;;;;;;5.57;0.60;;;;;;;15.46;49.05;101058.69;5077247;28;20490;-57
2023/11/24 07:01:10;;;;;;;7.90;1.77;;;;;;;15.38;49.38;101051.34;5095160;28;20078;-57
2023/11/24 07:03:35;;;;;;;3.33;1.10;;;;;;;15.30;48.40;101045.03;5095176;28;20058;-57
2023/11/24 07:06:01;;;;;;;2.97;0.98;;;;;;;15.22;47.98;101045.78;5095484;28;20495;-57
2023/11/24 07:08:27;;;;;;;4.65;0.85;;;;;;;15.16;48.45;101057.19;5057433;28;20538;-56
2023/11/24 07:10:53;;;;;;;5.57;0.63;;;;;;;15.15;48.56;101047.41;5057106;28;20032;-56
2023/11/24 07:13:18;;;;;;;3.35;1.10;;;;;;;15.13;48.15;101044.03;5074862;28;20032;-57
2023/11/24 07:15:44;;;;;;;9.23;1.20;;;;;;;15.13;49.09;101046.72;5073503;28;20070;-56
2023/11/24 07:18:09;;;;;;;4.88;0.85;;;;;;;15.12;49.50;101053.97;5056958;28;20060;-56
2023/11/24 07:20:34;;;;;;;3.90;0.93;;;;;;;15.14;48.14;101062.75;5074689;28;20028;-57
2023/11/24 07:23:00;;;;;;;3.40;0.90;;;;;;;15.11;48.95;101056.81;5074810;28;20067;-57
2023/11/24 07:25:26;;;;;;;4.15;0.82;;;;;;;15.12;49.29;101063.91;5073560;28;20572;-56
2023/11/24 07:27:51;;;;;;;8.95;1.15;;;;;;;15.09;49.63;101062.38;5073265;28;20029;-56
2023/11/24 07:30:18;;;;;;;2.70;1.00;;;;;;;15.12;49.51;101069.31;5074321;28;20488;-56
2023/11/24 07:32:44;;;;;;;5.30;1.02;;;;;;;15.12;49.17;101055.81;5074255;28;20040;-57
2023/11/24 07:35:10;;;;;;;5.05;0.60;;;;;;;15.15;49.52;101059.06;5056862;28;20040;-56
2023/11/24 07:37:36;;;;;;;7.75;0.85;;;;;;;15.20;48.24;101055.88;5074217;28;20083;-56
2023/11/24 07:40:07;;;;;;;2.90;0.88;;;;;;;15.21;49.45;101045.94;5056613;28;20428;-56
2023/11/24 07:42:33;;;;;;;1.25;0.50;;;;;;;15.25;49.21;101048.19;5074039;28;20377;-56
2023/11/24 07:44:59;;;;;;;5.60;0.82;;;;;;;15.27;49.59;101046.16;5073312;28;20025;-56
2023/11/24 07:47:25;;;;;;;6.30;0.90;;;;;;;15.31;49.01;101042.16;5074244;28;20163;-56
2023/11/24 07:49:50;;;;;;;2.88;0.90;;;;;;;15.36;49.22;101031.75;5074129;28;20056;-56
2023/11/24 07:52:16;;;;;;;4.18;0.80;;;;;;;15.41;48.45;101034.00;5073991;28;20102;-57
2023/11/24 07:54:41;;;;;;;5.60;0.80;;;;;;;15.49;48.20;101032.25;5083306;28;20125;-57
2023/11/24 07:57:07;;;;;;;3.78;0.63;;;;;;;15.51;49.01;101022.16;5094483;28;20067;-56
2023/11/24 07:59:33;;;;;;;2.72;0.65;;;;;;;15.50;48.61;101004.22;5094255;28;20085;-56
2023/11/24 08:01:59;;;;;;;4.22;0.80;;;;;;;15.54;49.06;100997.53;5094381;28;20036;-57
2023/11/24 08:04:24;;;;;;;6.38;0.63;;;;;;;15.54;48.08;100999.38;5092868;28;20028;-57
2023/11/24 08:06:49;;;;;;;4.18;1.80;;;;;;;15.55;48.80;100991.09;5075803;28;20119;-57
2023/11/24 08:09:16;;;;;;;3.67;0.82;;;;;;;15.60;47.50;100996.91;5093871;28;20036;-56
2023/11/24 08:11:44;;;;;;;3.80;0.88;;;;;;;15.61;47.72;100995.03;5094071;28;20020;-57
2023/11/24 08:14:09;;;;;;;6.22;0.82;;;;;;;15.67;48.35;100995.25;5075889;28;20039;-57
2023/11/24 08:16:35;;;;;;;5.25;1.08;;;;;;;15.69;47.97;100995.94;5093714;28;20376;-56
2023/11/24 08:19:01;;;;;;;7.30;1.17;;;;;;;15.76;47.88;100992.59;5093705;28;20058;-57
2023/11/24 08:21:26;;;;;;;2.58;0.80;;;;;;;15.83;48.67;101004.50;5093582;28;20553;-57
2023/11/24 08:23:52;;;;;;;5.63;1.15;;;;;;;15.90;48.64;101000.13;5094162;28;20035;-57
2023/11/24 08:26:18;;;;;;;4.93;0.90;;;;;;;15.91;48.94;101002.69;5077847;28;20025;-57
2023/11/24 08:28:44;;;;;;;2.72;0.73;;;;;;;15.92;48.55;100998.09;5094679;28;20115;-58
2023/11/24 08:31:20;;;;;;;4.97;1.52;;;;;;;15.88;48.67;100991.34;5075470;28;20081;-57
2023/11/24 08:33:46;;;;;;;2.58;1.00;;;;;;;15.93;48.61;100997.13;5075533;28;20036;-57
2023/11/24 08:36:12;;;;;;;12.82;0.82;;;;;;;15.92;48.17;100981.91;5057848;28;20040;-60
2023/11/24 08:38:37;;;;;;;2.72;1.35;;;;;;;15.91;48.25;100982.94;5093409;28;20110;-57
2023/11/24 08:41:09;;;;;;;8.43;0.90;;;;;;;15.91;48.30;100974.81;5093298;28;20048;-57
2023/11/24 08:43:37;;;;;;;8.00;0.82;;;;;;;15.90;47.19;100978.53;5075624;28;20035;-57
2023/11/24 08:46:02;;;;;;;7.78;0.80;;;;;;;15.88;48.82;100969.75;5093346;28;20045;-56
2023/11/24 08:48:28;;;;;;;1.27;0.38;;;;;;;15.86;48.92;100977.13;5092626;28;20024;-57
2023/11/24 08:50:53;;;;;;;3.70;0.80;;;;;;;15.81;48.55;100969.50;5075260;28;20012;-57
2023/11/24 08:53:18;;;;;;;6.88;0.77;;;;;;;15.80;48.19;100969.69;5075047;28;20036;-57
2023/11/24 08:55:44;;;;;;;6.90;0.85;;;;;;;15.85;47.42;100975.47;5093399;28;20356;-57
2023/11/24 08:58:09;;;;;;;9.43;0.90;;;;;;;15.88;47.45;100975.13;5075260;28;20027;-57
2023/11/24 09:00:35;;;;;;;5.00;0.70;;;;;;;15.84;47.73;100984.56;5093063;28;20395;-57
2023/11/24 09:03:02;;;;;;;4.88;1.05;;;;;;;15.79;48.79;100979.66;5092931;28;20464;-57
2023/11/24 09:05:27;;;;;;;4.80;0.60;;;;;;;15.73;47.72;100986.53;5092963;28;20024;-57
2023/11/24 09:07:53;;;;;;;1.48;0.70;;;;;;;15.69;47.23;100970.78;5093254;28;20032;-57
2023/11/24 09:10:19;;;;;;;5.25;0.88;;;;;;;15.60;48.31;100972.59;5093146;28;20062;-57
2023/11/24 09:12:45;;;;;;;7.95;1.13;;;;;;;15.55;47.88;100966.81;5092926;28;20024;-57
2023/11/24 09:15:11;;;;;;;4.57;0.77;;;;;;;15.55;47.81;100964.09;5093203;28;20024;-57
2023/11/24 09:17:36;;;;;;;3.30;0.75;;;;;;;15.68;48.35;100952.91;5093133;28;20047;-56
2023/11/24 09:20:05;;;;;;;2.45;0.60;;;;;;;16.11;47.48;100955.50;5092771;28;20079;-57
2023/11/24 09:22:31;;;;;;;3.90;0.90;;;;;;;16.68;45.94;100948.47;5058571;28;20028;-56
2023/11/24 09:24:56;;;;;;;2.20;0.52;;;;;;;16.70;47.01;100941.03;5075159;28;20031;-56
2023/11/24 09:27:22;;;;;;;2.22;0.60;;;;;;;16.59;46.00;100932.38;5093087;28;20032;-58
2023/11/24 09:29:47;;;;;;;2.35;0.50;;;;;;;16.52;47.62;100942.16;5074600;28;20035;-57
2023/11/24 09:32:13;;;;;;;6.47;1.02;;;;;;;16.48;46.48;100936.22;5092753;28;20107;-57
2023/11/24 09:34:38;;;;;;;2.85;0.63;;;;;;;16.34;46.85;100934.13;5074539;28;20486;-56
2023/11/24 09:37:05;;;;;;;1.08;0.40;;;;;;;16.34;47.34;100942.25;5092984;28;20028;-57
2023/11/24 09:39:30;;;;;;;4.05;0.75;;;;;;;16.29;46.85;100941.91;5092879;28;20032;-56
2023/11/24 09:41:56;;;;;;;2.78;0.50;;;;;;;16.24;47.10;100949.66;5074642;28;20032;-56
2023/11/24 09:44:21;;;;;;;3.03;0.60;;;;;;;16.19;46.83;100958.22;5074768;28;20392;-56
2023/11/24 09:46:47;;;;;;;6.63;0.85;;;;;;;16.05;46.97;100956.13;5074868;28;20032;-63
2023/11/24 09:49:15;;;;;;;5.88;1.25;;;;;;;15.90;47.13;100956.91;5074729;28;20387;-60
2023/11/24 09:51:41;;;;;;;4.07;0.90;;;;;;;15.73;48.53;100969.47;5092563;28;20623;-63
2023/11/24 09:54:08;;;;;;;4.45;0.60;;;;;;;15.61;48.30;100963.47;5074081;28;20119;-64
2023/11/24 09:56:34;;;;;;;1.48;0.45;;;;;;;15.47;47.21;100969.44;5092580;28;20054;-61
2023/11/24 09:59:00;;;;;;;1.33;0.70;;;;;;;15.36;48.66;100948.06;5055193;28;20496;-64
2023/11/24 10:01:27;;;;;;;3.60;0.50;;;;;;;15.30;48.49;100934.38;5057748;28;20037;-62
2023/11/24 10:03:53;;;;;;;1.92;0.22;;;;;;;15.20;47.41;100939.84;5066512;28;20123;-63
2023/11/24 10:06:18;;;;;;;7.55;0.55;;;;;;;15.11;47.54;100943.47;5058120;28;20074;-64
2023/11/24 10:08:45;;;;;;;0.38;0.22;;;;;;;15.00;47.47;100955.34;5076100;28;20036;-63
2023/11/24 10:11:12;;;;;;;0.55;0.40;;;;;;;14.93;47.59;100957.00;5057985;28;20451;-64
2023/11/24 10:13:41;;;;;;;1.45;0.25;;;;;;;14.86;47.54;100961.28;5057955;28;20039;-61
2023/11/24 10:16:07;;;;;;;4.70;0.38;;;;;;;14.83;48.81;100961.59;5057904;28;20560;-64
2023/11/24 10:18:33;;;;;;;1.38;0.70;;;;;;;14.83;49.09;100949.94;5075671;28;20052;-63
2023/11/24 10:20:59;;;;;;;5.07;0.40;;;;;;;14.81;48.94;100946.56;5057747;28;20071;-63
2023/11/24 10:23:29;;;;;;;2.45;0.52;;;;;;;14.75;47.87;100928.31;5057731;28;20116;-64
2023/11/24 10:25:55;;;;;;;0.95;0.30;;;;;;;14.84;47.94;100936.34;5058087;28;20115;-63
2023/11/24 10:28:21;;;;;;;2.67;0.80;;;;;;;15.02;48.67;100928.22;5057773;28;20463;-63
2023/11/24 10:30:47;;;;;;;1.25;0.50;;;;;;;15.23;48.14;100934.16;5076275;28;20054;-63
2023/11/24 10:33:17;;;;;;;6.55;0.38;;;;;;;15.41;47.82;100917.94;5058103;28;20036;-63
2023/11/24 10:35:42;;;;;;;1.80;0.40;;;;;;;15.62;46.71;100916.56;5059158;28;20029;-63
2023/11/24 10:38:08;;;;;;;1.23;0.63;;;;;;;15.89;46.82;100917.38;5043958;28;20039;-61
2023/11/24 10:40:33;;;;;;;5.03;0.98;;;;;;;15.97;48.09;100920.97;5061547;28;20581;-62
2023/11/24 10:42:59;;;;;;;3.28;0.40;;;;;;;15.95;46.95;100923.00;5079392;28;20031;-61
2023/11/24 10:45:30;;;;;;;2.08;0.40;;;;;;;15.86;47.31;100923.09;5077673;28;20111;-61
2023/11/24 10:47:55;;;;;;;3.67;0.30;;;;;;;15.80;48.39;100919.19;5095783;28;20407;-62
2023/11/24 10:50:24;;;;;;;3.67;0.28;;;;;;;15.96;46.97;100913.91;5095524;28;20038;-62
2023/11/24 10:53:00;;;;;;;1.40;0.32;;;;;;;15.98;46.96;100911.03;5077492;28;20438;-62
2023/11/24 10:55:26;;;;;;;0.95;0.43;;;;;;;16.07;46.17;100910.06;5077379;28;20044;-57
2023/11/24 10:57:52;;;;;;;5.63;0.50;;;;;;;16.36;46.28;100915.88;5077142;28;20511;-57
2023/11/24 11:00:20;;;;;;;3.92;1.38;;;;;;;16.75;45.48;100900.78;5060423;28;20028;-57
2023/11/24 11:02:46;;;;;;;4.35;0.45;;;;;;;16.86;46.45;100892.34;5077392;28;20032;-57
2023/11/24 11:05:38;;;;;;;4.85;1.00;;;;;;;17.70;45.13;100885.72;5077285;28;20035;-57
2023/11/24 11:08:19;;;;;;;2.90;0.50;;;;;;;17.54;45.11;100880.31;5095100;28;20028;-57
2023/11/24 11:10:55;;;;;;;0.85;0.30;;;;;;;17.39;45.55;100872.03;5077713;28;20441;-58
2023/11/24 11:13:21;;;;;;;2.08;0.55;;;;;;;17.64;45.78;100873.72;5076456;28;20042;-57
2023/11/24 11:15:50;;;;;;;9.18;0.82;;;;;;;17.53;45.45;100878.63;5077076;28;20016;-57